sensor_id;sensor_type;location;lat;lon;timestamp;P1;durP1;ratioP1;P2;durP2;ratioP2
62479;SDS011;48526;48.846;2.322;2023-03-01T00:00:39;17.00;;;13.00;;
62479;SDS011;48526;48.846;2.322;2023-03-01T00:03:06;15.50;;;11.25;;
62479;SDS011;48526;48.846;2.322;2023-03-01T00:05:33;12.00;;;7.75;;
62479;SDS011;48526;48.846;2.322;2023-03-01T00:07:58;17.50;;;14.25;;
62479;SDS011;48526;48.846;2.322;2023-03-01T00:10:25;16.50;;;14.75;;
62479;SDS011;48526;48.846;2.322;2023-03-01T00:12:51;17.00;;;15.75;;
62479;SDS011;48526;48.846;2.322;2023-03-01T00:15:20;12.00;;;10.75;;
62479;SDS011;48526;48.846;2.322;2023-03-01T00:17:46;20.00;;;15.50;;
62479;SDS011;48526;48.846;2.322;2023-03-01T00:20:13;20.75;;;16.00;;
62479;SDS011;48526;48.846;2.322;2023-03-01T00:22:42;19.25;;;16.00;;
62479;SDS011;48526;48.846;2.322;2023-03-01T00:25:10;17.00;;;13.75;;
62479;SDS011;48526;48.846;2.322;2023-03-01T00:27:37;18.75;;;16.75;;
62479;SDS011;48526;48.846;2.322;2023-03-01T00:30:03;19.50;;;17.25;;
62479;SDS011;48526;48.846;2.322;2023-03-01T00:32:28;16.75;;;15.50;;
62479;SDS011;48526;48.846;2.322;2023-03-01T00:34:54;19.50;;;14.25;;
62479;SDS011;48526;48.846;2.322;2023-03-01T00:37:20;21.67;;;19.00;;
62479;SDS011;48526;48.846;2.322;2023-03-01T00:39:46;22.00;;;21.00;;
62479;SDS011;48526;48.846;2.322;2023-03-01T00:42:13;9.50;;;7.00;;
62479;SDS011;48526;48.846;2.322;2023-03-01T00:44:40;20.50;;;19.00;;
62479;SDS011;48526;48.846;2.322;2023-03-01T00:47:06;17.25;;;16.00;;
62479;SDS011;48526;48.846;2.322;2023-03-01T00:49:32;21.25;;;19.00;;
62479;SDS011;48526;48.846;2.322;2023-03-01T00:51:57;18.25;;;16.75;;
62479;SDS011;48526;48.846;2.322;2023-03-01T00:54:24;18.50;;;13.50;;
62479;SDS011;48526;48.846;2.322;2023-03-01T00:56:52;10.50;;;10.00;;
62479;SDS011;48526;48.846;2.322;2023-03-01T00:59:19;18.00;;;17.00;;
62479;SDS011;48526;48.846;2.322;2023-03-01T01:01:44;19.00;;;16.00;;
62479;SDS011;48526;48.846;2.322;2023-03-01T01:04:10;22.00;;;15.00;;
62479;SDS011;48526;48.846;2.322;2023-03-01T01:06:41;22.00;;;14.25;;
62479;SDS011;48526;48.846;2.322;2023-03-01T01:09:12;19.00;;;19.00;;
62479;SDS011;48526;48.846;2.322;2023-03-01T01:11:42;15.75;;;15.00;;
62479;SDS011;48526;48.846;2.322;2023-03-01T01:14:08;21.00;;;19.25;;
62479;SDS011;48526;48.846;2.322;2023-03-01T01:16:34;18.75;;;16.25;;
62479;SDS011;48526;48.846;2.322;2023-03-01T01:19:00;22.00;;;16.00;;
62479;SDS011;48526;48.846;2.322;2023-03-01T01:21:25;22.50;;;16.25;;
62479;SDS011;48526;48.846;2.322;2023-03-01T01:23:52;23.00;;;19.00;;
62479;SDS011;48526;48.846;2.322;2023-03-01T01:26:20;17.00;;;15.00;;
62479;SDS011;48526;48.846;2.322;2023-03-01T01:28:49;14.75;;;14.75;;
62479;SDS011;48526;48.846;2.322;2023-03-01T01:31:15;18.50;;;15.50;;
62479;SDS011;48526;48.846;2.322;2023-03-01T01:33:44;22.25;;;13.75;;
62479;SDS011;48526;48.846;2.322;2023-03-01T01:36:10;19.00;;;15.25;;
62479;SDS011;48526;48.846;2.322;2023-03-01T01:38:36;17.00;;;12.25;;
62479;SDS011;48526;48.846;2.322;2023-03-01T01:41:03;25.75;;;18.50;;
62479;SDS011;48526;48.846;2.322;2023-03-01T01:43:31;18.75;;;17.00;;
62479;SDS011;48526;48.846;2.322;2023-03-01T01:45:59;12.75;;;12.50;;
62479;SDS011;48526;48.846;2.322;2023-03-01T01:48:28;19.25;;;14.00;;
62479;SDS011;48526;48.846;2.322;2023-03-01T01:51:05;13.50;;;13.50;;
62479;SDS011;48526;48.846;2.322;2023-03-01T01:53:37;18.25;;;15.25;;
62479;SDS011;48526;48.846;2.322;2023-03-01T01:56:07;18.50;;;15.75;;
62479;SDS011;48526;48.846;2.322;2023-03-01T01:58:34;22.75;;;18.75;;
62479;SDS011;48526;48.846;2.322;2023-03-01T02:01:00;23.75;;;17.75;;
62479;SDS011;48526;48.846;2.322;2023-03-01T02:03:29;21.25;;;16.00;;
62479;SDS011;48526;48.846;2.322;2023-03-01T02:06:12;18.00;;;14.50;;
62479;SDS011;48526;48.846;2.322;2023-03-01T02:08:42;17.00;;;17.00;;
62479;SDS011;48526;48.846;2.322;2023-03-01T02:11:08;20.75;;;18.75;;
62479;SDS011;48526;48.846;2.322;2023-03-01T02:13:35;15.00;;;14.50;;
62479;SDS011;48526;48.846;2.322;2023-03-01T02:16:03;19.25;;;16.25;;
62479;SDS011;48526;48.846;2.322;2023-03-01T02:18:31;16.25;;;14.25;;
62479;SDS011;48526;48.846;2.322;2023-03-01T02:23:25;16.00;;;13.50;;
62479;SDS011;48526;48.846;2.322;2023-03-01T02:28:36;20.75;;;15.50;;
62479;SDS011;48526;48.846;2.322;2023-03-01T02:31:04;22.50;;;16.75;;
62479;SDS011;48526;48.846;2.322;2023-03-01T02:33:49;27.25;;;20.00;;
62479;SDS011;48526;48.846;2.322;2023-03-01T02:36:19;27.00;;;16.00;;
62479;SDS011;48526;48.846;2.322;2023-03-01T02:38:57;21.25;;;14.75;;
62479;SDS011;48526;48.846;2.322;2023-03-01T02:41:24;25.00;;;20.25;;
62479;SDS011;48526;48.846;2.322;2023-03-01T02:43:50;20.50;;;17.50;;
62479;SDS011;48526;48.846;2.322;2023-03-01T02:46:19;20.00;;;18.50;;
62479;SDS011;48526;48.846;2.322;2023-03-01T02:48:51;14.00;;;13.50;;
62479;SDS011;48526;48.846;2.322;2023-03-01T02:57:30;16.25;;;13.25;;
62479;SDS011;48526;48.846;2.322;2023-03-01T02:59:59;19.00;;;15.00;;
62479;SDS011;48526;48.846;2.322;2023-03-01T03:02:32;20.75;;;15.75;;
62479;SDS011;48526;48.846;2.322;2023-03-01T03:05:02;19.50;;;17.00;;
62479;SDS011;48526;48.846;2.322;2023-03-01T03:07:31;15.00;;;12.25;;
62479;SDS011;48526;48.846;2.322;2023-03-01T03:09:58;22.25;;;15.50;;
62479;SDS011;48526;48.846;2.322;2023-03-01T03:12:24;27.75;;;17.50;;
62479;SDS011;48526;48.846;2.322;2023-03-01T03:14:50;21.25;;;16.00;;
62479;SDS011;48526;48.846;2.322;2023-03-01T03:17:16;15.75;;;12.50;;
62479;SDS011;48526;48.846;2.322;2023-03-01T03:19:41;26.00;;;18.50;;
62479;SDS011;48526;48.846;2.322;2023-03-01T03:22:13;20.00;;;18.75;;
62479;SDS011;48526;48.846;2.322;2023-03-01T03:24:38;17.25;;;12.50;;
62479;SDS011;48526;48.846;2.322;2023-03-01T03:27:04;25.25;;;20.00;;
62479;SDS011;48526;48.846;2.322;2023-03-01T03:29:30;23.25;;;19.00;;
62479;SDS011;48526;48.846;2.322;2023-03-01T03:31:56;23.50;;;18.75;;
62479;SDS011;48526;48.846;2.322;2023-03-01T03:34:23;26.00;;;16.25;;
62479;SDS011;48526;48.846;2.322;2023-03-01T03:36:52;22.75;;;17.25;;
62479;SDS011;48526;48.846;2.322;2023-03-01T03:39:24;22.25;;;17.00;;
62479;SDS011;48526;48.846;2.322;2023-03-01T03:41:51;21.00;;;15.75;;
62479;SDS011;48526;48.846;2.322;2023-03-01T03:44:17;20.50;;;18.00;;
62479;SDS011;48526;48.846;2.322;2023-03-01T03:46:43;19.00;;;15.25;;
62479;SDS011;48526;48.846;2.322;2023-03-01T03:49:09;22.00;;;17.00;;
62479;SDS011;48526;48.846;2.322;2023-03-01T03:51:55;24.75;;;21.00;;
62479;SDS011;48526;48.846;2.322;2023-03-01T03:54:20;15.75;;;15.25;;
62479;SDS011;48526;48.846;2.322;2023-03-01T03:56:46;22.33;;;20.33;;
62479;SDS011;48526;48.846;2.322;2023-03-01T03:59:11;23.00;;;18.00;;
62479;SDS011;48526;48.846;2.322;2023-03-01T04:01:36;16.00;;;15.25;;
62479;SDS011;48526;48.846;2.322;2023-03-01T04:04:02;20.50;;;19.00;;
62479;SDS011;48526;48.846;2.322;2023-03-01T04:06:29;19.25;;;18.00;;
62479;SDS011;48526;48.846;2.322;2023-03-01T04:08:55;22.00;;;20.50;;
62479;SDS011;48526;48.846;2.322;2023-03-01T04:11:23;23.50;;;16.00;;
62479;SDS011;48526;48.846;2.322;2023-03-01T04:13:52;23.75;;;20.00;;
62479;SDS011;48526;48.846;2.322;2023-03-01T04:16:20;18.50;;;18.00;;
62479;SDS011;48526;48.846;2.322;2023-03-01T04:18:45;23.50;;;19.50;;
62479;SDS011;48526;48.846;2.322;2023-03-01T04:21:11;23.75;;;19.00;;
62479;SDS011;48526;48.846;2.322;2023-03-01T04:23:37;25.50;;;19.25;;
62479;SDS011;48526;48.846;2.322;2023-03-01T04:26:02;21.50;;;15.50;;
62479;SDS011;48526;48.846;2.322;2023-03-01T04:28:29;17.25;;;15.50;;
62479;SDS011;48526;48.846;2.322;2023-03-01T04:31:01;24.75;;;20.00;;
62479;SDS011;48526;48.846;2.322;2023-03-01T04:33:37;23.75;;;17.50;;
62479;SDS011;48526;48.846;2.322;2023-03-01T04:36:04;22.00;;;18.00;;
62479;SDS011;48526;48.846;2.322;2023-03-01T04:38:30;23.00;;;20.50;;
62479;SDS011;48526;48.846;2.322;2023-03-01T04:40:56;19.25;;;13.00;;
62479;SDS011;48526;48.846;2.322;2023-03-01T04:43:22;20.00;;;13.25;;
62479;SDS011;48526;48.846;2.322;2023-03-01T04:45:47;21.00;;;18.50;;
62479;SDS011;48526;48.846;2.322;2023-03-01T04:48:17;18.50;;;17.50;;
62479;SDS011;48526;48.846;2.322;2023-03-01T04:50:43;19.50;;;16.50;;
62479;SDS011;48526;48.846;2.322;2023-03-01T04:53:09;23.00;;;16.50;;
62479;SDS011;48526;48.846;2.322;2023-03-01T04:55:34;22.00;;;15.00;;
62479;SDS011;48526;48.846;2.322;2023-03-01T04:57:59;21.00;;;18.75;;
62479;SDS011;48526;48.846;2.322;2023-03-01T05:00:25;17.33;;;15.00;;
62479;SDS011;48526;48.846;2.322;2023-03-01T05:02:57;24.25;;;19.25;;
62479;SDS011;48526;48.846;2.322;2023-03-01T05:05:30;27.25;;;21.25;;
62479;SDS011;48526;48.846;2.322;2023-03-01T05:08:02;18.25;;;15.00;;
62479;SDS011;48526;48.846;2.322;2023-03-01T05:10:30;24.50;;;18.50;;
62479;SDS011;48526;48.846;2.322;2023-03-01T05:12:57;18.50;;;17.00;;
62479;SDS011;48526;48.846;2.322;2023-03-01T05:15:24;23.50;;;20.00;;
62479;SDS011;48526;48.846;2.322;2023-03-01T05:17:51;22.00;;;16.00;;
62479;SDS011;48526;48.846;2.322;2023-03-01T05:20:17;23.50;;;21.00;;
62479;SDS011;48526;48.846;2.322;2023-03-01T05:22:44;17.75;;;16.50;;
62479;SDS011;48526;48.846;2.322;2023-03-01T05:25:09;23.50;;;19.00;;
62479;SDS011;48526;48.846;2.322;2023-03-01T05:27:35;20.75;;;19.50;;
62479;SDS011;48526;48.846;2.322;2023-03-01T05:30:01;21.00;;;17.75;;
62479;SDS011;48526;48.846;2.322;2023-03-01T05:32:45;24.00;;;21.50;;
62479;SDS011;48526;48.846;2.322;2023-03-01T05:35:12;22.00;;;19.75;;
62479;SDS011;48526;48.846;2.322;2023-03-01T05:37:40;24.75;;;21.50;;
62479;SDS011;48526;48.846;2.322;2023-03-01T05:40:12;13.50;;;13.25;;
62479;SDS011;48526;48.846;2.322;2023-03-01T05:42:44;21.00;;;21.00;;
62479;SDS011;48526;48.846;2.322;2023-03-01T05:45:14;22.00;;;17.50;;
62479;SDS011;48526;48.846;2.322;2023-03-01T05:47:40;23.50;;;18.00;;
62479;SDS011;48526;48.846;2.322;2023-03-01T05:50:29;25.00;;;21.50;;
62479;SDS011;48526;48.846;2.322;2023-03-01T05:52:59;30.50;;;23.50;;
62479;SDS011;48526;48.846;2.322;2023-03-01T05:55:32;22.00;;;21.50;;
62479;SDS011;48526;48.846;2.322;2023-03-01T05:57:59;22.50;;;19.25;;
62479;SDS011;48526;48.846;2.322;2023-03-01T06:00:28;24.75;;;23.00;;
62479;SDS011;48526;48.846;2.322;2023-03-01T06:02:55;29.00;;;24.50;;
62479;SDS011;48526;48.846;2.322;2023-03-01T06:05:21;23.75;;;21.75;;
62479;SDS011;48526;48.846;2.322;2023-03-01T06:07:47;19.25;;;16.75;;
62479;SDS011;48526;48.846;2.322;2023-03-01T06:10:13;27.75;;;22.75;;
62479;SDS011;48526;48.846;2.322;2023-03-01T06:12:40;28.00;;;22.00;;
62479;SDS011;48526;48.846;2.322;2023-03-01T06:15:06;28.50;;;19.00;;
62479;SDS011;48526;48.846;2.322;2023-03-01T06:17:34;24.75;;;19.75;;
62479;SDS011;48526;48.846;2.322;2023-03-01T06:20:03;26.75;;;23.25;;
62479;SDS011;48526;48.846;2.322;2023-03-01T06:22:29;32.00;;;26.75;;
62479;SDS011;48526;48.846;2.322;2023-03-01T06:24:55;30.50;;;23.50;;
62479;SDS011;48526;48.846;2.322;2023-03-01T06:27:23;30.33;;;25.67;;
62479;SDS011;48526;48.846;2.322;2023-03-01T06:29:49;33.75;;;28.50;;
62479;SDS011;48526;48.846;2.322;2023-03-01T06:32:14;30.00;;;27.00;;
62479;SDS011;48526;48.846;2.322;2023-03-01T06:34:39;21.75;;;21.50;;
62479;SDS011;48526;48.846;2.322;2023-03-01T06:37:06;28.75;;;27.00;;
62479;SDS011;48526;48.846;2.322;2023-03-01T06:39:32;25.00;;;21.00;;
62479;SDS011;48526;48.846;2.322;2023-03-01T06:41:58;35.00;;;28.25;;
62479;SDS011;48526;48.846;2.322;2023-03-01T06:44:24;33.00;;;25.25;;
62479;SDS011;48526;48.846;2.322;2023-03-01T06:46:49;33.50;;;24.25;;
62479;SDS011;48526;48.846;2.322;2023-03-01T06:49:14;31.50;;;24.00;;
62479;SDS011;48526;48.846;2.322;2023-03-01T06:51:41;27.50;;;26.00;;
62479;SDS011;48526;48.846;2.322;2023-03-01T06:54:06;28.75;;;26.50;;
62479;SDS011;48526;48.846;2.322;2023-03-01T06:56:32;31.00;;;27.50;;
62479;SDS011;48526;48.846;2.322;2023-03-01T06:58:57;20.75;;;20.00;;
62479;SDS011;48526;48.846;2.322;2023-03-01T07:01:23;25.50;;;24.00;;
62479;SDS011;48526;48.846;2.322;2023-03-01T07:03:48;33.75;;;26.50;;
62479;SDS011;48526;48.846;2.322;2023-03-01T07:06:14;33.50;;;26.50;;
62479;SDS011;48526;48.846;2.322;2023-03-01T07:08:39;32.75;;;27.50;;
62479;SDS011;48526;48.846;2.322;2023-03-01T07:11:04;33.50;;;25.75;;
62479;SDS011;48526;48.846;2.322;2023-03-01T07:13:30;35.25;;;27.50;;
62479;SDS011;48526;48.846;2.322;2023-03-01T07:15:56;29.25;;;26.50;;
62479;SDS011;48526;48.846;2.322;2023-03-01T07:18:22;35.00;;;32.75;;
62479;SDS011;48526;48.846;2.322;2023-03-01T07:20:47;34.00;;;26.00;;
62479;SDS011;48526;48.846;2.322;2023-03-01T07:23:12;42.25;;;33.25;;
62479;SDS011;48526;48.846;2.322;2023-03-01T07:25:40;31.00;;;29.50;;
62479;SDS011;48526;48.846;2.322;2023-03-01T07:28:06;34.25;;;30.75;;
62479;SDS011;48526;48.846;2.322;2023-03-01T07:30:31;42.50;;;35.50;;
62479;SDS011;48526;48.846;2.322;2023-03-01T07:32:57;34.00;;;27.75;;
62479;SDS011;48526;48.846;2.322;2023-03-01T07:35:23;24.75;;;22.50;;
62479;SDS011;48526;48.846;2.322;2023-03-01T07:37:50;37.25;;;31.00;;
62479;SDS011;48526;48.846;2.322;2023-03-01T07:40:16;36.00;;;30.75;;
62479;SDS011;48526;48.846;2.322;2023-03-01T07:42:44;39.50;;;32.50;;
62479;SDS011;48526;48.846;2.322;2023-03-01T07:45:09;45.00;;;32.00;;
62479;SDS011;48526;48.846;2.322;2023-03-01T07:47:35;29.50;;;25.75;;
62479;SDS011;48526;48.846;2.322;2023-03-01T07:50:01;38.00;;;30.75;;
62479;SDS011;48526;48.846;2.322;2023-03-01T07:52:28;40.25;;;33.00;;
62479;SDS011;48526;48.846;2.322;2023-03-01T07:54:53;34.00;;;27.25;;
62479;SDS011;48526;48.846;2.322;2023-03-01T07:57:19;31.75;;;27.75;;
62479;SDS011;48526;48.846;2.322;2023-03-01T07:59:44;36.50;;;30.00;;
62479;SDS011;48526;48.846;2.322;2023-03-01T08:02:10;39.75;;;31.50;;
62479;SDS011;48526;48.846;2.322;2023-03-01T08:04:36;32.00;;;28.00;;
62479;SDS011;48526;48.846;2.322;2023-03-01T08:07:03;39.25;;;34.25;;
62479;SDS011;48526;48.846;2.322;2023-03-01T08:09:29;37.00;;;30.25;;
62479;SDS011;48526;48.846;2.322;2023-03-01T08:11:56;35.50;;;32.00;;
62479;SDS011;48526;48.846;2.322;2023-03-01T08:14:21;30.50;;;23.75;;
62479;SDS011;48526;48.846;2.322;2023-03-01T08:16:48;40.50;;;36.50;;
62479;SDS011;48526;48.846;2.322;2023-03-01T08:19:14;36.00;;;31.50;;
62479;SDS011;48526;48.846;2.322;2023-03-01T08:21:39;38.33;;;30.00;;
62479;SDS011;48526;48.846;2.322;2023-03-01T08:24:05;43.50;;;39.75;;
62479;SDS011;48526;48.846;2.322;2023-03-01T08:26:32;45.25;;;33.25;;
62479;SDS011;48526;48.846;2.322;2023-03-01T08:28:58;46.50;;;38.00;;
62479;SDS011;48526;48.846;2.322;2023-03-01T08:31:29;44.50;;;35.00;;
62479;SDS011;48526;48.846;2.322;2023-03-01T08:33:58;37.50;;;31.75;;
62479;SDS011;48526;48.846;2.322;2023-03-01T08:36:26;47.75;;;37.50;;
62479;SDS011;48526;48.846;2.322;2023-03-01T08:38:52;36.00;;;32.25;;
62479;SDS011;48526;48.846;2.322;2023-03-01T08:41:18;28.50;;;26.75;;
62479;SDS011;48526;48.846;2.322;2023-03-01T08:43:44;44.50;;;35.00;;
62479;SDS011;48526;48.846;2.322;2023-03-01T08:46:10;44.50;;;34.75;;
62479;SDS011;48526;48.846;2.322;2023-03-01T08:48:36;49.00;;;33.50;;
62479;SDS011;48526;48.846;2.322;2023-03-01T08:51:08;40.25;;;32.25;;
62479;SDS011;48526;48.846;2.322;2023-03-01T08:53:35;38.50;;;31.00;;
62479;SDS011;48526;48.846;2.322;2023-03-01T08:56:00;33.00;;;27.25;;
62479;SDS011;48526;48.846;2.322;2023-03-01T08:58:27;44.00;;;35.50;;
62479;SDS011;48526;48.846;2.322;2023-03-01T09:00:53;22.75;;;20.25;;
62479;SDS011;48526;48.846;2.322;2023-03-01T09:03:18;38.50;;;30.75;;
62479;SDS011;48526;48.846;2.322;2023-03-01T09:05:44;38.00;;;32.67;;
62479;SDS011;48526;48.846;2.322;2023-03-01T09:08:10;39.75;;;31.75;;
62479;SDS011;48526;48.846;2.322;2023-03-01T09:10:39;36.50;;;34.25;;
62479;SDS011;48526;48.846;2.322;2023-03-01T09:13:05;37.00;;;31.25;;
62479;SDS011;48526;48.846;2.322;2023-03-01T09:15:30;35.50;;;31.75;;
62479;SDS011;48526;48.846;2.322;2023-03-01T09:17:56;34.25;;;29.50;;
62479;SDS011;48526;48.846;2.322;2023-03-01T09:20:21;37.50;;;33.00;;
62479;SDS011;48526;48.846;2.322;2023-03-01T09:22:47;40.25;;;37.00;;
62479;SDS011;48526;48.846;2.322;2023-03-01T09:25:13;40.75;;;33.00;;
62479;SDS011;48526;48.846;2.322;2023-03-01T09:27:41;48.25;;;39.75;;
62479;SDS011;48526;48.846;2.322;2023-03-01T09:30:10;40.50;;;32.75;;
62479;SDS011;48526;48.846;2.322;2023-03-01T09:32:36;39.25;;;32.00;;
62479;SDS011;48526;48.846;2.322;2023-03-01T09:35:02;41.00;;;33.50;;
62479;SDS011;48526;48.846;2.322;2023-03-01T09:37:32;35.75;;;33.25;;
62479;SDS011;48526;48.846;2.322;2023-03-01T09:39:58;40.25;;;34.00;;
62479;SDS011;48526;48.846;2.322;2023-03-01T09:42:27;36.75;;;33.50;;
62479;SDS011;48526;48.846;2.322;2023-03-01T09:45:05;41.00;;;34.00;;
62479;SDS011;48526;48.846;2.322;2023-03-01T09:47:36;39.75;;;35.75;;
62479;SDS011;48526;48.846;2.322;2023-03-01T09:50:04;41.75;;;29.50;;
62479;SDS011;48526;48.846;2.322;2023-03-01T09:52:43;38.25;;;33.25;;
62479;SDS011;48526;48.846;2.322;2023-03-01T09:55:25;41.50;;;32.50;;
62479;SDS011;48526;48.846;2.322;2023-03-01T09:58:40;41.50;;;32.75;;
62479;SDS011;48526;48.846;2.322;2023-03-01T10:00:49;36.75;;;29.00;;
62479;SDS011;48526;48.846;2.322;2023-03-01T10:06:33;35.50;;;33.25;;
62479;SDS011;48526;48.846;2.322;2023-03-01T10:09:19;44.00;;;35.75;;
62479;SDS011;48526;48.846;2.322;2023-03-01T10:11:57;41.75;;;34.00;;
62479;SDS011;48526;48.846;2.322;2023-03-01T10:14:33;34.50;;;27.75;;
62479;SDS011;48526;48.846;2.322;2023-03-01T10:19:34;40.00;;;32.75;;
62479;SDS011;48526;48.846;2.322;2023-03-01T10:22:04;38.00;;;31.25;;
62479;SDS011;48526;48.846;2.322;2023-03-01T10:24:38;33.00;;;27.50;;
62479;SDS011;48526;48.846;2.322;2023-03-01T10:27:09;36.25;;;29.75;;
62479;SDS011;48526;48.846;2.322;2023-03-01T10:29:48;35.25;;;26.00;;
62479;SDS011;48526;48.846;2.322;2023-03-01T10:32:19;43.50;;;38.00;;
62479;SDS011;48526;48.846;2.322;2023-03-01T10:34:46;40.25;;;35.25;;
62479;SDS011;48526;48.846;2.322;2023-03-01T10:37:13;37.25;;;37.00;;
62479;SDS011;48526;48.846;2.322;2023-03-01T10:42:33;40.75;;;29.25;;
62479;SDS011;48526;48.846;2.322;2023-03-01T10:45:16;40.50;;;32.00;;
62479;SDS011;48526;48.846;2.322;2023-03-01T10:47:42;37.50;;;31.25;;
62479;SDS011;48526;48.846;2.322;2023-03-01T10:50:19;37.25;;;32.50;;
62479;SDS011;48526;48.846;2.322;2023-03-01T10:58:07;42.50;;;36.00;;
62479;SDS011;48526;48.846;2.322;2023-03-01T11:03:18;44.00;;;34.00;;
62479;SDS011;48526;48.846;2.322;2023-03-01T11:06:29;38.00;;;29.50;;
62479;SDS011;48526;48.846;2.322;2023-03-01T11:08:45;33.25;;;26.25;;
62479;SDS011;48526;48.846;2.322;2023-03-01T11:13:37;38.67;;;31.00;;
62479;SDS011;48526;48.846;2.322;2023-03-01T11:16:12;37.75;;;29.25;;
62479;SDS011;48526;48.846;2.322;2023-03-01T11:18:38;41.25;;;31.75;;
62479;SDS011;48526;48.846;2.322;2023-03-01T11:21:03;38.50;;;30.75;;
62479;SDS011;48526;48.846;2.322;2023-03-01T11:23:30;40.25;;;36.50;;
62479;SDS011;48526;48.846;2.322;2023-03-01T11:25:57;39.50;;;35.75;;
62479;SDS011;48526;48.846;2.322;2023-03-01T11:28:25;31.00;;;29.00;;
62479;SDS011;48526;48.846;2.322;2023-03-01T11:31:02;36.00;;;28.50;;
62479;SDS011;48526;48.846;2.322;2023-03-01T11:33:35;44.75;;;35.50;;
62479;SDS011;48526;48.846;2.322;2023-03-01T11:36:32;34.00;;;22.00;;
62479;SDS011;48526;48.846;2.322;2023-03-01T11:39:23;32.75;;;28.50;;
62479;SDS011;48526;48.846;2.322;2023-03-01T11:42:00;34.50;;;27.50;;
62479;SDS011;48526;48.846;2.322;2023-03-01T11:44:36;28.75;;;26.25;;
62479;SDS011;48526;48.846;2.322;2023-03-01T11:47:25;38.50;;;36.25;;
62479;SDS011;48526;48.846;2.322;2023-03-01T11:50:29;39.75;;;31.25;;
62479;SDS011;48526;48.846;2.322;2023-03-01T11:58:41;30.75;;;27.75;;
62479;SDS011;48526;48.846;2.322;2023-03-01T12:01:23;33.50;;;26.75;;
62479;SDS011;48526;48.846;2.322;2023-03-01T12:06:33;38.25;;;31.00;;
62479;SDS011;48526;48.846;2.322;2023-03-01T12:09:17;37.00;;;29.50;;
62479;SDS011;48526;48.846;2.322;2023-03-01T12:12:34;39.25;;;29.25;;
62479;SDS011;48526;48.846;2.322;2023-03-01T12:14:49;42.50;;;35.75;;
62479;SDS011;48526;48.846;2.322;2023-03-01T12:20:44;29.00;;;22.25;;
62479;SDS011;48526;48.846;2.322;2023-03-01T12:26:35;33.50;;;29.75;;
62479;SDS011;48526;48.846;2.322;2023-03-01T12:31:54;42.50;;;34.50;;
62479;SDS011;48526;48.846;2.322;2023-03-01T12:49:10;44.00;;;36.75;;
62479;SDS011;48526;48.846;2.322;2023-03-01T12:51:38;42.50;;;31.75;;
62479;SDS011;48526;48.846;2.322;2023-03-01T12:54:26;40.75;;;33.00;;
62479;SDS011;48526;48.846;2.322;2023-03-01T12:56:57;40.25;;;30.00;;
62479;SDS011;48526;48.846;2.322;2023-03-01T12:59:38;37.75;;;28.00;;
62479;SDS011;48526;48.846;2.322;2023-03-01T13:07:27;42.50;;;37.50;;
62479;SDS011;48526;48.846;2.322;2023-03-01T13:10:12;43.00;;;37.50;;
62479;SDS011;48526;48.846;2.322;2023-03-01T13:17:49;32.25;;;26.75;;
62479;SDS011;48526;48.846;2.322;2023-03-01T13:20:17;37.25;;;31.00;;
62479;SDS011;48526;48.846;2.322;2023-03-01T13:22:46;41.75;;;33.00;;
62479;SDS011;48526;48.846;2.322;2023-03-01T13:25:16;42.50;;;34.75;;
62479;SDS011;48526;48.846;2.322;2023-03-01T13:27:44;30.00;;;28.00;;
62479;SDS011;48526;48.846;2.322;2023-03-01T13:35:53;47.75;;;28.00;;
62479;SDS011;48526;48.846;2.322;2023-03-01T13:41:06;45.25;;;32.75;;
62479;SDS011;48526;48.846;2.322;2023-03-01T13:43:33;35.00;;;32.00;;
62479;SDS011;48526;48.846;2.322;2023-03-01T13:46:00;32.00;;;25.50;;
62479;SDS011;48526;48.846;2.322;2023-03-01T13:48:33;37.25;;;31.75;;
62479;SDS011;48526;48.846;2.322;2023-03-01T13:50:59;28.00;;;23.25;;
62479;SDS011;48526;48.846;2.322;2023-03-01T13:53:33;37.00;;;34.25;;
62479;SDS011;48526;48.846;2.322;2023-03-01T13:56:03;40.75;;;35.25;;
62479;SDS011;48526;48.846;2.322;2023-03-01T13:58:33;48.75;;;39.00;;
62479;SDS011;48526;48.846;2.322;2023-03-01T14:01:20;42.00;;;32.75;;
62479;SDS011;48526;48.846;2.322;2023-03-01T14:03:51;38.25;;;34.25;;
62479;SDS011;48526;48.846;2.322;2023-03-01T14:06:17;40.25;;;34.50;;
62479;SDS011;48526;48.846;2.322;2023-03-01T14:08:46;39.75;;;33.00;;
62479;SDS011;48526;48.846;2.322;2023-03-01T14:14:03;43.75;;;31.00;;
62479;SDS011;48526;48.846;2.322;2023-03-01T14:16:36;35.75;;;30.00;;
62479;SDS011;48526;48.846;2.322;2023-03-01T14:19:23;34.50;;;28.25;;
62479;SDS011;48526;48.846;2.322;2023-03-01T14:24:49;31.25;;;26.25;;
62479;SDS011;48526;48.846;2.322;2023-03-01T14:27:19;37.25;;;33.00;;
62479;SDS011;48526;48.846;2.322;2023-03-01T14:29:54;40.50;;;32.25;;
62479;SDS011;48526;48.846;2.322;2023-03-01T14:32:25;31.25;;;27.25;;
62479;SDS011;48526;48.846;2.322;2023-03-01T14:34:52;39.75;;;32.75;;
62479;SDS011;48526;48.846;2.322;2023-03-01T14:37:20;38.25;;;27.25;;
62479;SDS011;48526;48.846;2.322;2023-03-01T14:39:45;33.00;;;31.25;;
62479;SDS011;48526;48.846;2.322;2023-03-01T14:42:11;44.75;;;39.50;;
62479;SDS011;48526;48.846;2.322;2023-03-01T14:44:37;40.00;;;32.75;;
62479;SDS011;48526;48.846;2.322;2023-03-01T14:47:03;44.00;;;31.00;;
62479;SDS011;48526;48.846;2.322;2023-03-01T14:49:30;36.75;;;35.25;;
62479;SDS011;48526;48.846;2.322;2023-03-01T14:52:04;42.00;;;35.00;;
62479;SDS011;48526;48.846;2.322;2023-03-01T14:57:18;40.75;;;37.50;;
62479;SDS011;48526;48.846;2.322;2023-03-01T14:59:46;34.50;;;32.25;;
62479;SDS011;48526;48.846;2.322;2023-03-01T15:02:17;36.75;;;35.00;;
62479;SDS011;48526;48.846;2.322;2023-03-01T15:04:45;43.50;;;35.75;;
62479;SDS011;48526;48.846;2.322;2023-03-01T15:07:12;38.75;;;33.50;;
62479;SDS011;48526;48.846;2.322;2023-03-01T15:09:39;42.25;;;37.50;;
62479;SDS011;48526;48.846;2.322;2023-03-01T15:14:52;44.75;;;37.25;;
62479;SDS011;48526;48.846;2.322;2023-03-01T15:17:36;42.25;;;39.00;;
62479;SDS011;48526;48.846;2.322;2023-03-01T15:20:07;50.75;;;38.25;;
62479;SDS011;48526;48.846;2.322;2023-03-01T15:22:45;38.50;;;36.25;;
62479;SDS011;48526;48.846;2.322;2023-03-01T15:25:20;46.75;;;35.00;;
62479;SDS011;48526;48.846;2.322;2023-03-01T15:27:48;39.75;;;36.00;;
62479;SDS011;48526;48.846;2.322;2023-03-01T15:30:34;43.00;;;37.75;;
62479;SDS011;48526;48.846;2.322;2023-03-01T15:35:52;39.00;;;32.25;;
62479;SDS011;48526;48.846;2.322;2023-03-01T15:40:53;32.25;;;28.50;;
62479;SDS011;48526;48.846;2.322;2023-03-01T15:43:38;37.00;;;31.75;;
62479;SDS011;48526;48.846;2.322;2023-03-01T15:46:13;33.25;;;29.25;;
62479;SDS011;48526;48.846;2.322;2023-03-01T15:48:46;42.25;;;34.00;;
62479;SDS011;48526;48.846;2.322;2023-03-01T15:51:17;41.00;;;31.50;;
62479;SDS011;48526;48.846;2.322;2023-03-01T15:53:51;42.50;;;33.00;;
62479;SDS011;48526;48.846;2.322;2023-03-01T15:56:17;38.50;;;33.75;;
62479;SDS011;48526;48.846;2.322;2023-03-01T15:58:43;44.50;;;34.00;;
62479;SDS011;48526;48.846;2.322;2023-03-01T16:01:10;33.25;;;28.75;;
62479;SDS011;48526;48.846;2.322;2023-03-01T16:03:38;40.75;;;34.75;;
62479;SDS011;48526;48.846;2.322;2023-03-01T16:06:03;39.75;;;33.00;;
62479;SDS011;48526;48.846;2.322;2023-03-01T16:08:29;44.25;;;33.00;;
62479;SDS011;48526;48.846;2.322;2023-03-01T16:10:55;42.25;;;35.25;;